createdAt,value
2014-09-15T12:38:07.158Z,101338
2014-09-15T12:39:44.896Z,101315
2014-09-15T12:40:03.084Z,101333
2014-09-15T12:40:21.584Z,101315
2014-09-15T12:40:40.961Z,101327
2014-09-15T12:40:59.742Z,101333
2014-09-15T12:41:18.929Z,101330
2014-09-15T12:41:37.791Z,101324
2014-09-15T12:41:56.963Z,101327
2014-09-15T12:42:15.760Z,101330
2014-09-15T12:42:34.792Z,101324
2014-09-15T12:42:54.057Z,101324
2014-09-15T12:43:12.792Z,101324
2014-09-15T12:43:31.776Z,101318
2014-09-15T12:43:50.763Z,101318
2014-09-15T12:44:09.825Z,101332
2014-09-15T12:44:28.231Z,101335
2014-09-15T12:44:47.296Z,101330
2014-09-15T12:45:06.218Z,101318
2014-09-15T12:45:24.999Z,101315
2014-09-15T12:45:44.142Z,101318
2014-09-15T12:46:02.923Z,101318
2014-09-15T12:46:22.095Z,101321
2014-09-15T12:46:41.050Z,101330
2014-09-15T12:47:00.003Z,101324
2014-09-15T12:47:18.753Z,101318
2014-09-15T12:47:37.958Z,101324
2014-09-15T12:47:57.005Z,101318
2014-09-15T12:48:15.974Z,101324
2014-09-15T12:48:34.943Z,101318
2014-09-15T12:48:54.068Z,101324
2014-09-15T12:49:12.240Z,101318
2014-09-15T12:49:31.647Z,101327
2014-09-15T12:49:50.602Z,101330
2014-09-15T12:50:09.602Z,101327
2014-09-15T12:50:28.586Z,101324
2014-09-15T12:50:47.573Z,101330
2014-09-15T12:51:06.777Z,101321
2014-09-15T12:51:25.558Z,101330
2014-09-15T12:51:44.763Z,101318
2014-09-15T12:52:03.575Z,101318
2014-09-15T12:52:22.575Z,101318
2014-09-15T12:52:41.546Z,101318
2014-09-15T12:53:00.484Z,101318
2014-09-15T12:53:19.406Z,101318
2014-09-15T12:53:38.344Z,101315
2014-09-15T12:53:57.297Z,101318
2014-09-15T12:54:16.266Z,101318
2014-09-15T12:54:35.221Z,101315
2014-09-15T12:54:53.987Z,101324
2014-09-15T12:55:13.112Z,101324
2014-09-15T12:55:31.815Z,101318
2014-09-15T12:55:50.739Z,101318
2014-09-15T12:56:09.973Z,101321
2014-09-15T12:56:29.114Z,101318
2014-09-15T12:56:47.881Z,101318
2014-09-15T12:57:06.834Z,101324
2014-09-15T12:57:25.694Z,101315
2014-09-15T12:57:44.649Z,101312
2014-09-15T12:58:03.899Z,101315
2014-09-15T12:58:22.711Z,101327
2014-09-15T12:58:41.948Z,101318
2014-09-15T12:59:00.713Z,101315
2014-09-15T12:59:19.760Z,101318
2014-09-15T12:59:38.122Z,101309
2014-09-15T12:59:56.325Z,101309
2014-09-15T13:00:14.512Z,101318
2014-09-15T13:00:32.700Z,101318
2014-09-15T13:00:50.905Z,101309
2014-09-15T13:01:09.108Z,101312
2014-09-15T13:01:27.296Z,101309
2014-09-15T13:01:45.485Z,101307
2014-09-15T13:02:03.688Z,101315
2014-09-15T13:02:21.891Z,101321
2014-09-15T13:02:40.081Z,101315
2014-09-15T13:02:58.284Z,101302
2014-09-15T13:03:16.471Z,101315
2014-09-15T13:03:34.661Z,101312
2014-09-15T13:03:52.864Z,101315
2014-09-15T13:04:11.052Z,101318
2014-09-15T13:04:29.255Z,101309
2014-09-15T13:04:47.444Z,101315
2014-09-15T13:05:05.647Z,101315
2014-09-15T13:05:23.835Z,101309
2014-09-15T13:05:42.039Z,101306
2014-09-15T13:06:00.226Z,101309
2014-09-15T13:06:18.430Z,101315
2014-09-15T13:06:36.619Z,101315
2014-09-15T13:06:54.807Z,101309
2014-09-15T13:07:13.010Z,101318
2014-09-15T13:07:31.197Z,101312
2014-09-15T13:07:49.402Z,101305
2014-09-15T13:08:07.605Z,101305
2014-09-15T13:08:25.793Z,101312
2014-09-15T13:08:43.982Z,101309
2014-09-15T13:09:02.186Z,101309
2014-09-15T13:09:20.373Z,101309
2014-09-15T13:09:38.578Z,101312
2014-09-15T13:09:56.766Z,101321
2014-09-15T13:10:14.969Z,101315
2014-09-15T13:10:33.156Z,101305
2014-09-15T13:10:51.361Z,101315
2014-09-15T13:11:09.549Z,101312
2014-09-15T13:11:27.736Z,101312
2014-09-15T13:11:45.942Z,101315
2014-09-15T13:12:04.129Z,101306
2014-09-15T13:12:22.332Z,101306
2014-09-15T13:12:40.537Z,101318
2014-09-15T13:12:58.725Z,101305
2014-09-15T13:13:16.928Z,101312
2014-09-15T13:13:35.117Z,101305
2014-09-15T13:13:53.305Z,101296
2014-09-15T13:14:11.508Z,101312
2014-09-15T13:14:29.696Z,101324
2014-09-15T13:14:47.901Z,101306
2014-09-15T13:15:06.104Z,101306
2014-09-15T13:15:24.291Z,101296
2014-09-15T13:15:42.496Z,101305
2014-09-15T13:16:00.700Z,101315
2014-09-15T13:16:18.887Z,101312
2014-09-15T13:16:37.076Z,101318
2014-09-15T13:16:55.279Z,101305
2014-09-15T13:17:13.482Z,101315
2014-09-15T13:17:31.669Z,101312
2014-09-15T13:17:49.859Z,101309
2014-09-15T13:18:08.062Z,101306
2014-09-15T13:18:26.265Z,101305
2014-09-15T13:18:44.455Z,101315
2014-09-15T13:19:02.642Z,101315
2014-09-15T13:19:20.845Z,101306
2014-09-15T13:19:39.035Z,101302
2014-09-15T13:19:57.238Z,101315
2014-09-15T13:20:15.441Z,101302
2014-09-15T13:20:33.630Z,101304
2014-09-15T13:20:51.818Z,101309
2014-09-15T13:21:10.021Z,101296
2014-09-15T13:21:28.209Z,101309
2014-09-15T13:21:46.414Z,101315
2014-09-15T13:22:04.601Z,101302
2014-09-15T13:22:22.804Z,101309
2014-09-15T13:22:40.994Z,101302
2014-09-15T13:22:59.197Z,101304
2014-09-15T13:23:17.384Z,101306
2014-09-15T13:23:35.590Z,101304
2014-09-15T13:23:53.793Z,101304
2014-09-15T13:24:11.980Z,101290
2014-09-15T13:24:30.168Z,101296
2014-09-15T13:24:48.373Z,101296
2014-09-15T13:25:06.560Z,101304
2014-09-15T13:25:24.763Z,101302
2014-09-15T13:25:42.953Z,101296
2014-09-15T13:26:01.156Z,101306
2014-09-15T13:26:19.344Z,101304
2014-09-15T13:26:37.548Z,101302
2014-09-15T13:26:55.735Z,101299
2014-09-15T13:27:13.923Z,101304
2014-09-15T13:27:32.126Z,101293
2014-09-15T15:42:05.207Z,101255
2014-09-15T15:42:23.410Z,101255
2014-09-15T15:42:41.600Z,101255
2014-09-15T15:42:59.803Z,101252
2014-09-15T15:43:17.990Z,101258
2014-09-15T15:43:36.181Z,101258
2014-09-15T15:43:54.384Z,101264
2014-09-15T15:44:12.571Z,101264
2014-09-15T15:44:30.775Z,101249
2014-09-15T15:44:48.964Z,101258
2014-09-15T15:45:07.152Z,101258
2014-09-15T15:45:25.355Z,101258
2014-09-15T15:45:43.544Z,101255
2014-09-15T15:46:01.732Z,101252
2014-09-15T15:46:19.935Z,101252
2014-09-15T15:46:38.124Z,101247
2014-09-15T15:46:56.327Z,101258
2014-09-15T15:47:14.843Z,101255
2014-09-15T15:47:32.812Z,101247
2014-09-15T15:47:51.018Z,101252
2014-09-15T15:48:09.205Z,101255
2014-09-15T15:48:27.409Z,101252
2014-09-15T15:48:45.598Z,101255
2014-09-15T15:49:03.786Z,101252
2014-09-15T15:49:21.989Z,101252
2014-09-15T15:49:40.179Z,101252
2014-09-15T15:49:58.367Z,101258
2014-09-15T15:50:16.570Z,101247
2014-09-15T15:50:34.757Z,101249
2014-09-15T15:50:52.961Z,101255
2014-09-15T15:51:11.149Z,101247
2014-09-15T15:51:29.336Z,101264
2014-09-15T15:51:47.918Z,101247
2014-09-15T15:52:07.105Z,101252
2014-09-15T15:52:26.011Z,101247
2014-09-15T15:52:44.200Z,101258
2014-09-15T15:53:02.403Z,101252
2014-09-15T15:53:20.590Z,101249
2014-09-15T15:53:38.796Z,101249
2014-09-15T15:53:56.983Z,101252
2014-09-15T15:54:15.186Z,101252
2014-09-15T15:54:33.374Z,101249
2014-09-15T15:54:51.579Z,101252
2014-09-15T15:55:09.766Z,101252
2014-09-15T15:55:27.969Z,101252
2014-09-15T15:55:46.160Z,101255
2014-09-15T15:56:04.347Z,101255
2014-09-15T15:56:22.535Z,101252
2014-09-15T15:56:40.740Z,101258
2014-09-15T15:56:58.943Z,101261
2014-09-15T15:57:17.131Z,101247
2014-09-15T15:57:35.318Z,101255
2014-09-15T15:57:53.522Z,101252
2014-09-15T15:58:11.710Z,101247
2014-09-15T15:58:29.897Z,101249
2014-09-15T15:58:48.087Z,101258
2014-09-15T15:59:06.290Z,101249
2014-09-15T15:59:24.493Z,101258
2014-09-15T15:59:42.668Z,101258
2014-09-15T16:00:00.871Z,101241
2014-09-15T16:00:19.059Z,101252
2014-09-15T16:00:37.263Z,101258
2014-09-15T16:00:55.450Z,101258
2014-09-15T16:01:13.638Z,101255
2014-09-15T16:01:31.841Z,101258
2014-09-15T16:01:50.030Z,101252
2014-09-15T16:02:08.218Z,101252
2014-09-15T16:02:26.405Z,101258
2014-09-15T16:02:44.610Z,101258
2014-09-15T16:03:02.798Z,101255
2014-09-15T16:03:21.001Z,101255
2014-09-15T16:03:39.191Z,101264
2014-09-15T16:03:57.378Z,101252
2014-09-15T16:04:15.581Z,101258
2014-09-15T16:04:33.769Z,101258
2014-09-15T16:04:51.958Z,101255
2014-09-15T16:05:10.161Z,101264
2014-09-15T16:05:28.349Z,101267
2014-09-15T16:05:46.538Z,101258
2014-09-15T16:06:04.741Z,101255
2014-09-15T16:06:22.929Z,101258
2014-09-15T16:06:41.116Z,101255
2014-09-15T16:06:59.306Z,101258
2014-09-15T16:07:17.493Z,101261
2014-09-15T16:07:35.697Z,101261
2014-09-15T16:07:53.886Z,101264
2014-09-15T16:08:12.074Z,101255
2014-09-15T16:08:30.261Z,101258
2014-09-15T16:08:48.449Z,101252
2014-09-15T16:09:06.638Z,101267
2014-09-15T16:09:24.841Z,101258
2014-09-15T16:09:43.029Z,101258
2014-09-15T16:10:01.219Z,101258
2014-09-15T16:10:19.422Z,101252
2014-09-15T16:10:37.610Z,101255
2014-09-15T16:10:55.797Z,101252
2014-09-15T16:11:13.986Z,101244
2014-09-15T16:11:32.173Z,101264
2014-09-15T16:11:50.361Z,101264
2014-09-15T16:12:08.550Z,101258
2014-09-15T16:12:26.753Z,101258
2014-09-15T16:12:44.941Z,101252
2014-09-15T16:13:03.128Z,101264
2014-09-15T16:13:21.319Z,101258
2014-09-15T16:13:39.506Z,101255
2014-09-15T16:13:57.710Z,101252
2014-09-15T16:14:15.899Z,101264
2014-09-15T16:14:34.087Z,101258
2014-09-15T16:14:52.274Z,101258
2014-09-15T16:15:10.477Z,101258
2014-09-15T16:15:28.666Z,101255
2014-09-15T16:15:46.853Z,101267
2014-09-15T16:16:05.041Z,101247
2014-09-15T16:16:23.231Z,101269
2014-09-15T16:16:41.419Z,101255
2014-09-15T16:16:59.622Z,101264
2014-09-15T16:17:17.809Z,101264
2014-09-15T16:17:35.999Z,101261
2014-09-15T16:17:54.186Z,101261
2014-09-15T16:18:12.374Z,101261
2014-09-15T16:18:30.578Z,101264
2014-09-15T16:18:48.765Z,101255
2014-09-15T16:19:06.953Z,101267
2014-09-15T16:19:25.140Z,101264
2014-09-15T16:19:43.346Z,101269
2014-09-15T16:20:01.533Z,101261
2014-09-15T16:20:19.721Z,101261
2014-09-15T16:20:37.911Z,101264
2014-09-15T16:20:56.114Z,101264
2014-09-15T16:21:14.302Z,101258
2014-09-15T16:21:32.489Z,101264
2014-09-15T16:21:50.678Z,101258
2014-09-15T16:22:08.865Z,101264
2014-09-15T16:22:27.068Z,101258
2014-09-15T16:22:45.258Z,101272
2014-09-15T16:23:03.445Z,101269
2014-09-15T16:23:21.633Z,101261
2014-09-15T16:23:39.838Z,101258
2014-09-15T16:23:58.025Z,101261
2014-09-15T16:24:16.213Z,101264
2014-09-15T16:24:34.400Z,101258
2014-09-15T16:24:52.606Z,101261
2014-09-15T16:25:10.793Z,101264
2014-09-15T16:25:28.981Z,101258
2014-09-15T16:25:47.170Z,101258
2014-09-15T16:26:05.358Z,101264
2014-09-15T16:26:23.561Z,101261
2014-09-15T16:26:41.750Z,101255
2014-09-15T16:26:59.938Z,101264
2014-09-15T16:27:18.125Z,101255
2014-09-15T16:27:36.315Z,101264
2014-09-15T16:27:54.518Z,101261
2014-09-15T16:28:12.705Z,101267
2014-09-15T16:28:30.893Z,101261
2014-09-15T16:28:49.082Z,101264
2014-09-15T16:29:07.285Z,101267
2014-09-15T16:29:25.473Z,101264
2014-09-15T16:29:48.459Z,101264
2014-09-15T16:30:06.662Z,101258
2014-09-15T16:30:24.850Z,101255
2014-09-15T16:30:43.055Z,101261
2014-09-15T16:31:01.243Z,101249
2014-09-15T16:31:19.446Z,101255
2014-09-15T16:31:37.634Z,101261
2014-09-15T16:31:55.837Z,101252
2014-09-15T16:32:14.040Z,101261
2014-09-15T16:32:32.228Z,101267
2014-09-15T16:32:50.417Z,101261
2014-09-15T16:33:08.605Z,101255
2014-09-15T16:33:26.808Z,101267
2014-09-15T16:33:44.998Z,101252
2014-09-15T16:34:03.185Z,101258
2014-09-15T16:34:21.388Z,101264
2014-09-15T16:34:39.578Z,101261
2014-09-15T16:34:57.781Z,101264
2014-09-15T16:35:15.968Z,101264
2014-09-15T16:35:34.156Z,101272
2014-09-15T16:35:52.362Z,101255
2014-09-15T16:36:10.549Z,101264
2014-09-15T16:36:28.737Z,101252
2014-09-15T16:36:46.926Z,101252
2014-09-15T16:37:05.130Z,101264
2014-09-15T16:37:23.317Z,101264
2014-09-15T16:37:41.506Z,101261
2014-09-15T16:37:59.709Z,101252
2014-09-15T16:38:17.896Z,101264
2014-09-15T16:38:36.101Z,101264
2014-09-15T16:38:54.289Z,101264
2014-09-15T16:39:12.476Z,101261
2014-09-15T16:39:30.679Z,101258
2014-09-15T16:39:48.869Z,101255
2014-09-15T16:40:07.056Z,101252
2014-09-15T16:40:25.260Z,101241
2014-09-15T16:40:43.449Z,101264
2014-09-15T16:41:01.652Z,101261
2014-09-15T16:41:19.840Z,101261
2014-09-15T16:41:38.045Z,101267
2014-09-15T16:41:56.232Z,101264
2014-09-15T16:42:14.420Z,101264
2014-09-15T16:42:32.607Z,101261
2014-09-15T16:42:50.812Z,101252
2014-09-15T16:43:09.000Z,101261
2014-09-15T16:43:27.187Z,101261
2014-09-15T16:43:45.393Z,101255
2014-09-15T16:44:03.580Z,101261
2014-09-15T16:44:21.768Z,101255
2014-09-15T16:44:39.987Z,101258
2014-09-15T16:44:58.175Z,101261
2014-09-15T16:45:16.378Z,101261
2014-09-15T16:45:34.565Z,101258
2014-09-15T16:45:52.755Z,101261
2014-09-15T16:46:10.958Z,101258
2014-09-15T16:46:29.146Z,101255
2014-09-15T16:46:47.351Z,101255
2014-09-15T16:47:05.538Z,101252
2014-09-15T16:47:23.726Z,101264
2014-09-15T16:47:41.915Z,101258
2014-09-15T16:48:00.118Z,101264
2014-09-15T16:48:18.306Z,101258
2014-09-15T16:48:36.495Z,101252
2014-09-15T16:48:54.698Z,101258
2014-09-15T16:49:12.886Z,101267
2014-09-15T16:49:31.073Z,101252
2014-09-15T16:49:49.263Z,101258
2014-09-15T16:50:07.466Z,101258
2014-09-15T16:50:25.654Z,101258
2014-09-15T16:50:43.859Z,101255
2014-09-15T16:51:02.046Z,101258
2014-09-15T16:51:20.234Z,101261
2014-09-15T16:51:38.423Z,101255
2014-09-15T16:51:56.626Z,101258
2014-09-15T16:52:14.814Z,101267
2014-09-15T16:52:33.001Z,101258
2014-09-15T16:52:51.191Z,101255
2014-09-15T16:53:09.394Z,101258
2014-09-15T16:53:27.581Z,101258
2014-09-15T16:53:45.787Z,101267
2014-09-15T16:54:03.974Z,101261
2014-09-15T16:54:22.162Z,101255
2014-09-15T16:54:40.367Z,101261
2014-09-15T16:54:58.554Z,101261
2014-09-15T16:55:16.757Z,101261
2014-09-15T16:55:34.945Z,101255
2014-09-15T16:55:53.134Z,101258
2014-09-15T16:56:11.322Z,101258
2014-09-15T16:56:29.509Z,101267
2014-09-15T16:56:47.699Z,101258
2014-09-15T16:57:05.902Z,101258
2014-09-15T16:57:24.089Z,101252
2014-09-15T16:57:42.295Z,101264
2014-09-15T16:58:00.482Z,101264
2014-09-15T16:58:18.670Z,101258
2014-09-15T16:58:36.858Z,101258
2014-09-15T16:58:55.061Z,101258
2014-09-15T16:59:13.249Z,101258
2014-09-15T16:59:31.436Z,101258
2014-09-15T16:59:49.626Z,101258
2014-09-15T17:00:07.813Z,101261
2014-09-15T17:00:26.001Z,101269
2014-09-15T17:00:44.206Z,101264
2014-09-15T17:01:02.393Z,101264
2014-09-15T17:01:20.581Z,101267
2014-09-15T17:01:38.771Z,101264
2014-09-15T17:01:56.974Z,101269
2014-09-15T17:02:15.162Z,101258
2014-09-15T17:02:33.349Z,101258
2014-09-15T17:02:51.538Z,101264
2014-09-15T17:03:09.725Z,101264
2014-09-15T17:03:27.913Z,101258
2014-09-15T17:03:46.118Z,101261
2014-09-15T17:04:04.306Z,101264
2014-09-15T17:04:22.493Z,101267
2014-09-15T17:04:40.698Z,101267
2014-09-15T17:04:58.886Z,101264
2014-09-15T17:05:17.073Z,101264
2014-09-15T17:05:35.261Z,101261
2014-09-15T17:05:53.466Z,101264
2014-09-15T17:06:11.653Z,101264
2014-09-15T17:06:29.841Z,101267
2014-09-15T17:06:48.030Z,101272
2014-09-15T17:07:06.218Z,101269
2014-09-15T17:07:24.421Z,101258
2014-09-15T17:07:42.610Z,101267
2014-09-15T17:08:00.798Z,101264
2014-09-15T17:08:18.985Z,101269
2014-09-15T17:08:37.175Z,101264
2014-09-15T17:08:55.378Z,101258
2014-09-15T17:09:13.566Z,101264
2014-09-15T17:09:31.753Z,101264
2014-09-15T17:09:49.943Z,101258
2014-09-15T17:10:08.130Z,101261
2014-09-15T17:10:26.333Z,101264
2014-09-15T17:10:44.523Z,101269
2014-09-15T17:11:02.710Z,101267
2014-09-15T17:11:20.898Z,101267
2014-09-15T17:11:39.087Z,101264
2014-09-15T17:11:57.275Z,101275
2014-09-15T17:12:15.478Z,101264
2014-09-15T17:12:33.665Z,101264
2014-09-15T18:27:19.137Z,101312
2014-09-15T18:27:37.342Z,101296
2014-09-15T18:27:55.529Z,101299
2014-09-15T18:28:13.732Z,101293
2014-09-15T18:28:31.920Z,101305
2014-09-15T18:28:50.125Z,101306
2014-09-15T18:29:08.312Z,101302
2014-09-15T18:29:26.515Z,101302
2014-09-15T18:29:44.721Z,101293
2014-09-15T18:30:02.908Z,101306
2014-09-15T18:30:21.096Z,101302
2014-09-15T18:30:39.301Z,101299
2014-09-15T18:30:57.504Z,101296
2014-09-15T18:31:15.691Z,101312
2014-09-15T18:31:33.879Z,101312
2014-09-15T18:31:52.084Z,101305
2014-09-15T18:32:10.287Z,101302
2014-09-15T18:32:28.475Z,101299
2014-09-15T18:32:46.680Z,101310
2014-09-15T18:33:04.867Z,101310
2014-09-15T18:33:23.070Z,101305
2014-09-15T18:33:41.275Z,101307
2014-09-15T18:33:59.463Z,101313
2014-09-15T18:34:17.666Z,101299
2014-09-15T18:34:35.854Z,101302
2014-09-15T18:34:54.059Z,101316
2014-09-15T18:35:12.246Z,101297
2014-09-15T18:35:30.449Z,101307
2014-09-15T18:35:48.639Z,101307
2014-09-15T18:36:06.842Z,101299
2014-09-15T18:36:25.029Z,101310
2014-09-15T18:36:43.235Z,101310
2014-09-15T18:37:01.438Z,101307
2014-09-15T18:37:19.625Z,101305
2014-09-15T18:37:37.815Z,101316
2014-09-15T18:37:56.018Z,101316
2014-09-15T18:38:14.221Z,101307
2014-09-15T18:38:32.408Z,101307
2014-09-15T18:38:50.613Z,101307
2014-09-15T18:39:08.816Z,101313
2014-09-15T18:39:27.003Z,101310
2014-09-15T18:39:45.208Z,101313
2014-09-15T18:40:03.396Z,101307
2014-09-15T18:40:21.599Z,101310
2014-09-15T18:40:39.788Z,101300
2014-09-15T18:40:57.992Z,101316
2014-09-15T18:41:16.179Z,101319
2014-09-15T18:41:34.382Z,101305
2014-09-15T18:41:52.572Z,101310
2014-09-15T18:42:10.822Z,101305
2014-09-15T18:42:29.009Z,101310
2014-09-15T18:42:47.199Z,101302
2014-09-15T18:43:05.402Z,101307
2014-09-15T18:43:23.589Z,101316
2014-09-15T18:43:41.794Z,101310
2014-09-15T18:43:59.998Z,101300
2014-09-15T18:44:18.185Z,101307
2014-09-15T18:44:36.388Z,101313
2014-09-15T18:44:54.578Z,101307
2014-09-15T18:45:12.781Z,101300
2014-09-15T18:45:30.984Z,101307
2014-09-15T18:45:49.173Z,101313
2014-09-15T18:46:07.377Z,101322
2014-09-15T18:46:25.564Z,101307
2014-09-15T18:46:43.769Z,101310
2014-09-15T18:47:01.972Z,101313
2014-09-15T18:47:20.160Z,101319
2014-09-15T18:47:38.365Z,101307
2014-09-15T18:47:56.568Z,101310
2014-09-15T18:48:14.756Z,101319
2014-09-15T18:48:32.959Z,101322
2014-09-15T18:48:51.148Z,101316
2014-09-15T18:49:09.351Z,101316
2014-09-15T18:49:27.539Z,101310
2014-09-15T18:49:45.743Z,101310
2014-09-15T18:50:03.930Z,101319
2014-09-15T18:50:22.134Z,101313
2014-09-15T18:50:40.340Z,101328
2014-09-15T18:50:58.527Z,101316
2014-09-15T18:51:16.730Z,101316
2014-09-15T18:51:34.918Z,101316
2014-09-15T18:51:53.123Z,101328
2014-09-15T18:52:11.310Z,101307
2014-09-15T18:52:29.514Z,101313
2014-09-15T18:52:47.703Z,101313
2014-09-15T18:53:05.906Z,101316
2014-09-15T18:53:24.109Z,101325
2014-09-15T18:53:42.299Z,101316
2014-09-15T18:54:00.502Z,101328
2014-09-15T18:54:18.689Z,101319
2014-09-15T18:54:36.893Z,101322
2014-09-15T18:54:55.081Z,101325
2014-09-15T18:55:13.284Z,101333
2014-09-15T18:55:31.487Z,101325
2014-09-15T18:55:49.677Z,101322
2014-09-15T18:56:07.880Z,101319
2014-09-15T18:56:26.067Z,101331
2014-09-15T18:56:44.273Z,101330
2014-09-15T18:57:02.476Z,101325
2014-09-15T18:57:20.663Z,101322
2014-09-15T18:57:38.853Z,101325
2014-09-15T18:57:57.056Z,101322
2014-09-15T18:58:15.259Z,101328
2014-09-15T18:58:33.462Z,101325
2014-09-15T18:58:51.667Z,101316
2014-09-15T18:59:09.855Z,101322
2014-09-15T18:59:28.058Z,101328
2014-09-15T18:59:46.247Z,101322
2014-09-15T19:00:04.450Z,101322
2014-09-15T19:00:22.654Z,101319
2014-09-15T19:00:40.843Z,101316
2014-09-15T19:00:59.046Z,101316
2014-09-15T19:01:17.234Z,101325
2014-09-15T19:01:35.437Z,101325
2014-09-15T19:01:53.642Z,101316
2014-09-15T19:02:11.829Z,101322
2014-09-15T19:02:30.033Z,101325
2014-09-15T19:02:48.222Z,101319
2014-09-15T19:03:06.425Z,101319
2014-09-15T19:03:24.628Z,101319
2014-09-15T19:03:42.817Z,101316
2014-09-15T19:04:01.020Z,101322
2014-09-15T19:04:19.207Z,101319
2014-09-15T19:04:37.411Z,101313
2014-09-15T19:04:55.600Z,101319
2014-09-15T19:05:13.803Z,101322
2014-09-15T19:05:31.991Z,101311
2014-09-15T19:05:50.196Z,101316
2014-09-15T19:06:08.383Z,101322
2014-09-15T19:06:26.586Z,101316
2014-09-15T19:06:44.792Z,101322
2014-09-15T19:07:02.979Z,101322
2014-09-15T19:07:21.167Z,101319
2014-09-15T19:07:39.372Z,101325
2014-09-15T19:07:57.575Z,101316
2014-09-15T19:08:15.762Z,101314
2014-09-15T19:08:33.965Z,101316
2014-09-15T19:08:52.155Z,101328
2014-09-15T19:09:10.358Z,101316
2014-09-15T19:09:28.546Z,101322
2014-09-15T19:09:46.751Z,101328
2014-09-15T19:10:04.938Z,101316
2014-09-15T19:10:23.141Z,101316
2014-09-15T19:10:41.331Z,101319
2014-09-15T19:10:59.534Z,101316
2014-09-15T19:11:17.737Z,101325
2014-09-15T19:11:35.925Z,101316
2014-09-15T19:11:54.130Z,101322
2014-09-15T19:12:12.333Z,101319
2014-09-15T19:12:30.520Z,101311
2014-09-15T19:12:48.724Z,101314
2014-09-15T19:13:06.912Z,101319
2014-09-15T19:13:25.115Z,101325
2014-09-15T19:13:43.305Z,101319
2014-09-15T19:14:01.508Z,101319
2014-09-15T19:14:19.711Z,101311
2014-09-15T19:14:37.901Z,101328
2014-09-15T19:14:56.104Z,101311
2014-09-15T19:15:14.292Z,101323
2014-09-15T19:15:32.495Z,101314
2014-09-15T19:15:50.700Z,101326
2014-09-15T19:16:08.919Z,101323
2014-09-15T19:16:27.122Z,101323
2014-09-15T19:16:45.327Z,101317
2014-09-15T19:17:03.530Z,101320
2014-09-15T19:17:21.718Z,101323
2014-09-15T19:17:39.923Z,101320
2014-09-15T19:17:58.110Z,101320
2014-09-15T19:18:16.298Z,101326
2014-09-15T19:18:34.501Z,101323
2014-09-15T19:18:52.691Z,101326
2014-09-15T19:19:10.894Z,101308
2014-09-15T19:19:29.081Z,101320
2014-09-15T19:19:47.285Z,101317
2014-09-15T19:20:05.473Z,101314
2014-09-15T19:20:23.676Z,101314
2014-09-15T19:20:41.865Z,101317
2014-09-15T19:21:00.053Z,101317
2014-09-15T19:21:18.256Z,101320
2014-09-15T19:21:36.444Z,101317
2014-09-15T19:21:54.633Z,101323
2014-09-15T19:22:12.836Z,101323
2014-09-15T19:22:31.039Z,101328
2014-09-15T19:22:49.229Z,101328
2014-09-15T19:23:07.432Z,101320
2014-09-15T19:23:25.635Z,101317
2014-09-15T19:23:43.887Z,101323
2014-09-15T19:24:02.090Z,101323
2014-09-15T19:24:20.278Z,101323
2014-09-15T19:24:38.483Z,101320
2014-09-15T19:24:56.670Z,101328
2014-09-15T19:25:14.873Z,101323
2014-09-15T19:25:33.061Z,101323
2014-09-15T19:25:51.250Z,101328
2014-09-15T19:26:09.454Z,101326
2014-09-15T19:26:27.641Z,101314
2014-09-15T19:26:45.846Z,101323
2014-09-15T19:27:04.034Z,101328
2014-09-15T19:27:22.237Z,101326
2014-09-15T19:27:40.425Z,101320
2014-09-15T19:27:58.644Z,101320
2014-09-15T19:28:16.847Z,101323
2014-09-15T19:28:35.035Z,101320
2014-09-15T19:28:53.241Z,101317
2014-09-15T19:29:11.444Z,101320
2014-09-15T19:29:29.647Z,101320
2014-09-15T19:29:47.852Z,101323
2014-09-15T19:30:06.055Z,101320
2014-09-15T19:30:24.227Z,101326
2014-09-15T19:30:42.464Z,101314
2014-09-15T19:31:00.698Z,101311
2014-09-15T19:31:18.854Z,101317
2014-09-15T19:31:37.073Z,101320
2014-09-15T19:31:55.262Z,101320
2014-09-15T19:32:13.466Z,101323
2014-09-15T19:32:31.669Z,101314
2014-09-15T19:32:49.858Z,101314
2014-09-15T19:33:08.061Z,101317
2014-09-15T19:33:26.264Z,101304
2014-09-15T19:33:44.454Z,101308
2014-09-15T19:34:02.673Z,101323
2014-09-15T19:34:20.860Z,101314
2014-09-15T19:34:39.064Z,101329
2014-09-15T19:34:57.267Z,101317
2014-09-15T19:35:15.455Z,101314
2014-09-15T19:35:33.658Z,101329
2014-09-15T19:35:51.848Z,101329
2014-09-15T19:36:10.082Z,101326
2014-09-15T19:36:28.285Z,101320
2014-09-15T19:36:46.474Z,101323
2014-09-15T19:37:04.739Z,101323
2014-09-15T19:37:22.942Z,101320
2014-09-15T19:37:41.132Z,101329
2014-09-15T19:37:59.335Z,101323
2014-09-15T19:38:17.522Z,101314
2014-09-15T19:38:35.726Z,101323
2014-09-15T19:38:53.916Z,101323
2014-09-15T19:39:12.119Z,101323
2014-09-15T19:39:30.322Z,101326
2014-09-15T19:39:48.527Z,101320
2014-09-15T19:40:06.715Z,101326
2014-09-15T19:40:24.949Z,101326
2014-09-15T19:40:43.139Z,101329
2014-09-15T19:41:01.342Z,101326
2014-09-15T19:41:19.529Z,101320
2014-09-15T19:41:37.717Z,101323
2014-09-15T19:41:55.922Z,101329
2014-09-15T19:42:14.110Z,101332
2014-09-15T19:42:32.297Z,101323
2014-09-15T19:42:50.486Z,101326
2014-09-15T19:43:08.689Z,101326
2014-09-15T19:43:26.876Z,101320
2014-09-15T19:43:45.066Z,101332
2014-09-15T19:44:03.253Z,101320
2014-09-15T19:44:21.456Z,101314
2014-09-15T19:44:39.646Z,101323
2014-09-15T19:44:57.833Z,101329
2014-09-15T19:45:16.036Z,101320
2014-09-15T19:45:34.240Z,101326
2014-09-15T19:45:52.429Z,101323
2014-09-15T19:46:10.632Z,101320
2014-09-15T19:46:28.804Z,101312
2014-09-15T19:46:47.009Z,101312
2014-09-15T19:47:05.197Z,101326
2014-09-15T19:47:23.384Z,101326
2014-09-15T19:47:41.574Z,101320
2014-09-15T19:47:59.761Z,101326
2014-09-15T19:48:17.964Z,101320
2014-09-15T19:48:36.152Z,101326
2014-09-15T19:48:54.341Z,101315
2014-09-15T19:49:12.529Z,101323
2014-09-15T19:49:30.716Z,101312
2014-09-15T19:49:48.921Z,101321
2014-09-15T19:50:07.109Z,101323
2014-09-15T19:50:25.296Z,101326
2014-09-15T19:50:43.486Z,101312
2014-09-15T19:51:01.673Z,101318
2014-09-15T19:51:19.861Z,101318
2014-09-15T19:51:38.048Z,101312
2014-09-15T19:51:56.254Z,101321
2014-09-15T19:52:14.441Z,101315
2014-09-15T19:52:32.629Z,101323
2014-09-15T19:52:50.818Z,101326
2014-09-15T19:53:09.006Z,101323
2014-09-15T19:53:27.209Z,101323
2014-09-15T19:53:45.398Z,101324
2014-09-15T19:54:03.586Z,101315
2014-09-15T19:54:21.773Z,101332
2014-09-15T19:54:39.962Z,101318
2014-09-15T19:54:58.165Z,101318
2014-09-15T19:55:16.352Z,101321
2014-09-15T19:55:34.540Z,101324
2014-09-15T19:55:52.729Z,101321